Deuces Wild Triathlon Festival 2016 Deuceman Olympic

# of participants: 264# of finishers: 222last updated: 6/23/2016 10:13 am
Result Questions?
Bib First Name Last Name Category DIVISION DIV Rank Finish Time Gender Age Age Group City State Swim TA 1 Bike TA 2 Run
81 Lewis Elliot Deuceman AGE GROUP 1 4:27:12.27 M 36 35-39 Scottsdale AZ 29:13.00 1:38.56 2:19:57.55 1:40.24 1:34:42.90
37 Kirk Nelson Deuceman AGE GROUP 2 4:33:26.69 M 36 35-39 Ivins OH 32:10.00 1:44.21 2:18:37.01 2:05.58 1:38:49.88
88 Brian Folts Deuceman AGE GROUP 3 4:36:51.02 M 30 30-34 Golden CO 31:18.00 2:29.03 2:32:53.30 1:56.49 1:28:14.19
83 Elliot Kawaoka Deuceman AGE GROUP 4 4:38:29.30 M 31 30-34 Tempe AZ 32:16.00 2:11.94 2:27:09.36 1:41.84 1:35:10.15
27 Adam Folts Deuceman AGE GROUP 5 4:42:13.91 M 30 30-34 Phoenix AZ 33:48.00 2:47.04 2:31:28.06 1:59.51 1:32:11.29
55 Russ Brandt Deuceman AGE GROUP 6 4:42:47.61 M 44 40-44 Phoenix AZ 33:41.00 2:27.91 2:25:26.09 1:37.16 1:39:35.44
63 Bryan Dunn Deuceman AGE GROUP 7 4:56:01.45 M 48 45-49 Fountain Hills AZ 33:15.00 2:31.42 2:29:06.26 2:08.30 1:49:00.45
67 Billy Oliver Deuceman AGE GROUP 8 5:04:31.39 M 52 50-54 Tucson AZ 33:53.00 2:09.77 2:36:04.11 1:59.31 1:50:25.20
89 Monica Folts Deuceman AGE GROUP 1 5:05:15.01 F 30 30-34 Golden CO 35:37.00 2:25.86 2:48:01.28 2:32.83 1:36:38.03
86 John Ballard Deuceman AGE GROUP 9 5:07:36.41 M 47 45-49 Scottsdale AZ 33:46.00 3:50.13 2:31:49.49 2:23.23 1:55:47.54
80 Cameron Comerford Deuceman AGE GROUP 10 5:09:05.64 M 36 35-39 Gilbert AZ 39:33.00 2:22.72 2:28:11.95 1:49.39 1:57:08.57
76 Shawna Glazier Deuceman AGE GROUP 2 5:12:29.77 F 33 30-34 Phoenix AZ 40:43.00 2:12.82 2:36:07.30 1:42.55 1:51:44.09
52 Jan Grande Deuceman AGE GROUP 11 5:15:33.12 M 42 40-44 Alamogordo NM 41:45.00 2:19.33 2:33:32.06 1:51.00 1:56:05.73
82 Jason Sexauer Deuceman AGE GROUP 12 5:15:57.30 M 39 35-39 Mesa AZ 36:18.00 2:00.57 2:43:33.93 2:00.16 1:52:04.63
44 David Steindam Deuceman AGE GROUP 13 5:17:36.90 M 40 40-44 Glendale AZ 35:31.00 2:30.84 2:41:31.16 2:05.48 1:55:58.40
74 Shigy Suzuki Deuceman AGE GROUP 14 5:18:39.91 M 58 55-59 Ventura CA 36:07.00 3:59.50 2:47:38.84 4:09.30 1:46:45.26
28 Sean Anderson Deuceman AGE GROUP 15 5:19:06.45 M 30 30-34 Tucson AZ 36:28.00 1:54.28 2:29:26.99 1:31.57 2:09:45.60
58 Nathan Scheigert Deuceman AGE GROUP 16 5:19:16.90 M 45 45-49 Phoenix AZ 36:22.00 3:09.52 0:10.30 2:41:09.67 1:58:25.39
367 Izzy Rubio Deuceman AGE GROUP 17 5:19:39.51 M 40 40-44 Tucson AZ 2:18:45.00 5:26.27 1:23:20.21 6:12.55 1:25:55.46
78 Rich Ebersole Deuceman AGE GROUP 18 5:21:38.13 M 27 25-29 Glendale AZ 36:46.00 3:50.87 2:48:22.95 2:59.36 1:49:38.94
10 Rochelle Arko Deuceman AGE GROUP 3 5:23:08.28 F 44 40-44 Gilbert AZ 40:13.00 2:05.37 2:46:05.27 1:38.74 1:53:05.89
40 Jason Stevens Deuceman AGE GROUP 19 5:25:24.73 M 39 35-39 Waddell AZ 31:19.00 3:50.05 2:44:22.56 2:06.78 2:03:46.33
61 Thomas Hudak Deuceman AGE GROUP 20 5:31:38.60 M 46 45-49 Glendale AZ 34:13.00 2:54.77 2:46:34.19 4:38.08 2:03:18.55
19 Kimberly Jefferson Deuceman AGE GROUP 4 5:33:08.54 F 53 50-54 Henderson NV 35:43.00 3:45.06 2:53:24.71 3:12.94 1:57:02.81
38 Phillip Sunderland Deuceman AGE GROUP 21 5:35:16.71 M 36 35-39 Albuquerque NM 33:20.00 2:25.20 2:49:22.14 3:15.63 2:06:53.73
91 Ernesto Suarez Deuceman AGE GROUP 22 5:35:32.39 M 34 30-34 Scottsdale AZ 37:16.00 2:45.17 2:55:27.66 2:06.78 1:57:56.76
54 Jason Ford Deuceman AGE GROUP 23 5:37:42.47 M 43 40-44 Gilbert AZ 47:04.00 5:11.25 2:55:10.79 4:00.26 1:46:16.15
4 Melissa Barrett Deuceman AGE GROUP 5 5:39:44.27 F 34 30-34 Gilbert AZ 34:38.00 3:18.42 3:02:36.76 1:55.56 1:57:15.53
5 Jennifer Dancer Deuceman AGE GROUP 6 5:43:46.25 F 35 35-39 Surprise AZ 40:17.00 2:24.57 3:03:17.58 2:08.45 1:55:38.63
31 Brian Pickup Deuceman AGE GROUP 24 5:48:16.47 M 33 30-34 Bellemont AZ 35:48.00 2:37.63 2:50:22.99 2:38.94 2:16:48.90
59 Josh Lind Deuceman AGE GROUP 25 5:50:21.13 M 45 45-49 Scottsdale AZ 34:12.00 2:43.56 2:57:54.90 1:49.02 2:13:41.63
69 Joe Rink Deuceman AGE GROUP 26 5:52:54.06 M 54 50-54 Scottsdale AZ 40:20.00 3:16.79 2:59:16.54 2:25.80 2:07:34.93
62 Chuck Kipp Deuceman CLYDESDALE 1 5:54:56.78 M 48 Mesa AZ 56:07.00 7:37.48
3 Olivia Chavez Deuceman AGE GROUP 7 5:55:16.14 F 32 30-34 Phoenix AZ 52:16.00 2:44.76 2:57:46.88 2:34.77 1:59:53.70
46 Avery De Marr Deuceman AGE GROUP 27 5:58:37.87 M 40 40-44 Gilbert AZ 33:03.00 2:52.82 2:48:03.85 2:14.91 2:32:23.27
41 Mark Jimenez Deuceman AGE GROUP 28 5:59:35.87 M 39 35-39 Las Vegas NV 37:56.00 3:27.88 3:05:27.04 4:27.89 2:08:17.05
51 Trace Smith Deuceman AGE GROUP 29 6:05:58.28 M 41 40-44 Tijeras NM 41:17.00 2:43.88 3:11:47.05 2:53.16 2:07:17.18
13 Lisa Bries Deuceman AGE GROUP 8 6:07:26.54 F 45 45-49 Peoria AZ 38:13.00 3:00.67 3:14:18.92 2:12.37 2:09:41.58
1 Jessica Folts Deuceman AGE GROUP 9 6:07:48.06 F 26 25-29 Phoenix AZ 33:13.00 2:27.76 3:04:44.68 1:51.06 2:25:31.54
60 David Hicks Deuceman AGE GROUP 30 6:07:49.95 M 46 45-49 Vail AZ 41:42.00 3:41.25 3:07:43.25 1:58.73 2:12:44.70
50 Jeff Brack Deuceman AGE GROUP 31 6:13:56.88 M 41 40-44 Tucson AZ 44:04.00 6:24.01 3:09:26.17 7:09.93 2:06:52.76
6 Bridgit Egosque Deuceman AGE GROUP 10 6:14:33.40 F 35 35-39 Mesa AZ 40:25.00 3:42.88 3:10:26.40 3:07.92 2:16:51.18
30 Jonathan Boyd Deuceman AGE GROUP 32 6:14:39.19 M 33 30-34 Buckeye AZ 39:40.00 2:44.61 2:57:53.37 3:31.50 2:30:49.68
11 Michele Hudak Deuceman AGE GROUP 11 6:16:13.23 F 45 45-49 Glendale AZ 40:29.00 2:50.78 3:12:14.40 3:07.94 2:17:31.11
42 Jacob Robinson Deuceman AGE GROUP 33 6:16:49.43 M 39 35-39 Rio Rancho NM 43:54.00 2:23.23 2:54:45.59 3:51.35 2:31:55.25
77 Jennifer Gibson Deuceman AGE GROUP 12 6:18:40.09 F 53 50-54 Phoenix AZ 38:18.00 4:46.22 3:04:13.32 4:03.38 2:27:19.16
16 Mary Laibe Deuceman AGE GROUP 13 6:23:50.58 F 46 45-49 Phoenix AZ 47:26.00 2:53.00 3:04:57.25 2:30.27 2:26:04.05
85 Marisa Gillispie Deuceman AGE GROUP 14 6:26:25.34 F 34 30-34 Barboursville WV 44:06.00 3:47.32 3:04:53.50 4:32.91 2:29:05.60
26 Levi Claridge Deuceman AGE GROUP 34 6:29:04.23 M 26 25-29 Peoria AZ 34:58.00 3:33.88 3:15:30.66 3:53.84 2:31:07.83
17 Carol Carruth Deuceman AGE GROUP 15 6:40:30.95 F 47 45-49 Tucson AZ 43:00.00 4:49.95 3:11:43.35 5:09.01 2:35:48.63
33 Darren Hiebel Deuceman AGE GROUP 35 6:42:56.49 M 35 35-39 Phoenix AZ 32:54.00 4:46.71 3:20:30.94 6:25.75 2:38:19.09
79 Kyle Ide Deuceman AGE GROUP 36 6:51:54.74 M 47 45-49 Mesa AZ 34:26.00 6:33.95 3:17:07.96 6:39.12 2:47:07.69
2 Megan Goodman Deuceman AGE GROUP 16 6:53:53.80 F 27 25-29 Glendale AZ 40:37.00 4:07.81 3:33:49.68 4:38.57 2:30:40.72
47 Paul Drinen Deuceman AGE GROUP 37 6:54:28.54 M 40 40-44 Chinle AZ 44:46.00 5:31.60 3:35:43.47 4:11.34 2:24:16.12
65 Chris Levally Deuceman AGE GROUP 38 6:56:35.15 M 50 50-54 Scottsdale AZ 42:54.00 3:16.73 3:17:31.77 7:34.98 2:45:17.66
72 Ken Haga Deuceman AGE GROUP 39 6:57:33.13 M 56 55-59 Phoenix AZ 41:01.00 4:32.88 3:22:04.49 5:48.54 2:44:06.21
20 Siobhan Snyder Deuceman AGE GROUP 17 6:57:56.96 F 53 50-54 Henderson NV 46:03.00 4:20.93 3:40:32.00 4:38.01 2:22:23.01
48 Kip Valentine Deuceman AGE GROUP 40 6:59:03.84 M 41 40-44 Scottsdale AZ 39:13.00 3:29.47 3:16:44.90 4:09.64 2:55:26.81
36 Garet Goodman Deuceman AGE GROUP 41 6:59:38.25 M 35 35-39 Sierra Vista AZ 38:46.00 3:34.47 3:30:54.36 3:06.71 2:43:16.69
8 Heather Dennis Deuceman AGE GROUP 18 7:05:20.01 F 43 40-44 Gilbert AZ 46:45.00 7:22.41 3:43:16.03 4:50.86 2:23:05.70
9 Mindy Stephenson Deuceman AGE GROUP 19 7:06:52.70 F 43 40-44 Queen Creek AZ 48:21.00 4:49.33 3:40:19.92 6:21.70 2:27:00.74
53 Theron Colvin Deuceman AGE GROUP 42 7:13:17.70 M 43 40-44 Mesa AZ 51:14.00 7:09.36 3:21:33.58 6:19.42 2:47:01.32
66 Josh Santin Deuceman AGE GROUP 43 7:14:28.97 M 51 50-54 Oxnard CA 44:19.00 5:26.77 3:24:31.73 5:44.15 2:54:27.31
22 Romy Suzuki Deuceman AGE GROUP 20 7:14:40.74 F 54 50-54 Ventura CA 53:50.00 6:04.57 3:38:20.79 5:52.21 2:30:33.16
73 Donald David Droste Deuceman AGE GROUP 44 7:16:29.90 M 56 55-59 Dewey AZ 45:21.00 7:37.52 3:43:14.86 7:38.73 2:32:37.78
49 John Steen Deuceman AGE GROUP 45 7:19:56.95 M 41 40-44 Phoenix AZ 55:36.00 3:59.70 3:35:59.82 4:07.46 2:40:13.96
71 Mark Thompson Deuceman AGE GROUP 46 7:31:40.75 M 56 55-59 Pueblo Of Acoma NM 50:33.00 -4:25.79 11:41.09 3:33:14.75 3:00:37.69
24 Pamela Hoyt Deuceman AGE GROUP 21 7:44:16.00 F 60 60-64 Tucson AZ 52:23.00 4:34.20 3:54:54.40 5:09.98
14 Melody Romero Deuceman AGE GROUP 22 8:02:56.00 F 45 45-49 Chandler AZ 52:32.00 5:44.18 4:01:29.32 8:08.04
90 Michael Mora Deuceman AGE GROUP 47 8:06:03.00 M 37 35-39 Peoria AZ 59:25.00 8:45.89 3:47:19.82 6:54.84
57 Rob Duran Deuceman AGE GROUP 48 8:10:56.00 M 45 45-49 Honolulu HI 56:25.00 7:31.66 4:04:28.34 5:06.70
87 Jason Davis Deuceman AGE GROUP 49 8:24:20.00 M 38 35-39 Peoria AZ 34:25.00 16:28.33 3:57:51.10 8:28.67